Time;durP1;ratioP1;P1;durP2;ratioP2;P2;SDS_P1;SDS_P2;PMS_P1;PMS_P2;Temp;Humidity;BMP_temperature;BMP_pressure;BME280_temperature;BME280_humidity;BME280_pressure;Samples;Min_cycle;Max_cycle;Signal;HPM_P1;HPM_P2
2023/06/18 00:01:09;;;;;;;5.10;4.20;;;15.40;99.90;;;;;;5030140;28;20463;-74
2023/06/18 00:03:35;;;;;;;5.30;4.47;;;15.30;99.90;;;;;;5030426;28;20465;-74
2023/06/18 00:06:03;;;;;;;5.50;4.97;;;15.30;99.90;;;;;;5030424;28;20464;-74
2023/06/18 00:08:30;;;;;;;5.17;4.70;;;15.20;99.90;;;;;;5030222;28;20477;-74
2023/06/18 00:10:57;;;;;;;5.60;5.00;;;15.20;99.90;;;;;;5030326;28;20464;-74
2023/06/18 00:13:24;;;;;;;5.17;4.40;;;15.20;99.90;;;;;;5030136;28;20966;-74
2023/06/18 00:15:50;;;;;;;6.20;5.00;;;15.10;99.90;;;;;;5032503;28;20547;-74
2023/06/18 00:18:17;;;;;;;5.90;5.30;;;15.10;99.90;;;;;;5034004;28;20472;-74
2023/06/18 00:20:44;;;;;;;6.30;5.10;;;15.00;99.90;;;;;;5034342;28;20936;-74
2023/06/18 00:23:12;;;;;;;6.83;5.20;;;15.00;99.90;;;;;;5033742;28;20468;-74
2023/06/18 00:25:38;;;;;;;5.13;4.63;;;15.00;99.90;;;;;;5034472;28;20468;-74
2023/06/18 00:28:05;;;;;;;5.90;5.07;;;15.00;99.90;;;;;;5033805;28;20475;-74
2023/06/18 00:30:32;;;;;;;4.83;4.43;;;14.90;99.90;;;;;;5034453;28;20456;-74
2023/06/18 00:32:59;;;;;;;4.90;4.13;;;14.90;99.90;;;;;;5034116;28;20495;-74
2023/06/18 00:35:26;;;;;;;6.30;4.80;;;14.90;99.90;;;;;;5034367;28;20464;-74
2023/06/18 00:37:52;;;;;;;7.07;5.03;;;14.90;99.90;;;;;;5034298;28;20460;-73
2023/06/18 00:40:20;;;;;;;6.00;4.80;;;14.90;99.90;;;;;;5033581;28;20473;-73
2023/06/18 00:42:48;;;;;;;4.97;4.47;;;14.90;99.90;;;;;;5033800;28;20472;-73
2023/06/18 00:45:16;;;;;;;6.43;4.90;;;14.90;99.90;;;;;;5033676;28;20465;-73
2023/06/18 00:47:44;;;;;;;5.27;4.77;;;14.80;99.90;;;;;;5034336;28;20875;-73
2023/06/18 00:50:12;;;;;;;5.03;4.53;;;14.80;99.90;;;;;;5033649;28;20819;-73
2023/06/18 00:52:44;;;;;;;6.60;4.90;;;14.80;99.90;;;;;;5034523;28;21012;-73
2023/06/18 00:55:12;;;;;;;5.07;4.50;;;14.80;99.90;;;;;;5033705;28;20460;-73
2023/06/18 00:57:41;;;;;;;5.57;4.80;;;14.70;99.90;;;;;;5033752;28;20472;-73
2023/06/18 01:00:11;;;;;;;6.23;5.63;;;14.70;99.90;;;;;;5032936;28;20514;-73
2023/06/18 01:02:45;;;;;;;5.53;5.00;;;14.60;99.90;;;;;;5033321;28;20522;-73
2023/06/18 01:05:13;;;;;;;7.83;5.17;;;14.60;99.90;;;;;;5033538;28;20464;-73
2023/06/18 01:07:41;;;;;;;5.47;4.67;;;14.60;99.90;;;;;;5033081;28;20948;-73
2023/06/18 01:10:11;;;;;;;6.10;5.10;;;14.50;99.90;;;;;;5032693;28;20463;-73
2023/06/18 01:12:38;;;;;;;5.53;4.97;;;14.50;99.90;;;;;;5032911;28;20476;-73
2023/06/18 01:15:09;;;;;;;5.43;4.93;;;14.40;99.90;;;;;;5032653;28;20959;-73
2023/06/18 01:17:37;;;;;;;5.17;4.67;;;14.40;99.90;;;;;;5038122;28;20542;-73
2023/06/18 01:20:10;;;;;;;6.80;5.40;;;14.40;99.90;;;;;;5052530;28;20467;-73
2023/06/18 01:22:40;;;;;;;7.23;5.37;;;14.40;99.90;;;;;;5052865;28;20463;-73
2023/06/18 01:25:09;;;;;;;5.33;4.83;;;14.40;99.90;;;;;;5052550;28;20471;-73
2023/06/18 01:27:40;;;;;;;5.77;4.90;;;14.30;99.90;;;;;;5051896;28;20467;-73
2023/06/18 01:30:10;;;;;;;5.47;4.97;;;14.30;99.90;;;;;;5052304;28;20526;-73
2023/06/18 01:32:38;;;;;;;5.63;5.00;;;14.30;99.90;;;;;;5052515;28;20824;-73
2023/06/18 01:35:05;;;;;;;6.03;5.43;;;14.20;99.90;;;;;;5052611;28;20532;-73
2023/06/18 01:37:44;;;;;;;5.50;4.90;;;14.20;99.90;;;;;;5052660;28;20840;-73
2023/06/18 01:40:29;;;;;;;5.80;4.77;;;14.20;99.90;;;;;;5052055;28;20962;-73
2023/06/18 01:43:05;;;;;;;5.53;4.47;;;14.10;99.90;;;;;;5051581;28;20463;-73
2023/06/18 01:45:41;;;;;;;6.70;5.30;;;14.10;99.90;;;;;;5052385;28;20487;-73
2023/06/18 01:48:09;;;;;;;7.27;5.47;;;14.00;99.90;;;;;;5052008;28;20486;-73
2023/06/18 01:50:38;;;;;;;5.87;5.33;;;14.00;99.90;;;;;;5052040;28;20480;-73
2023/06/18 01:53:06;;;;;;;6.93;5.03;;;14.00;99.90;;;;;;5051697;28;20506;-73
2023/06/18 01:55:34;;;;;;;5.30;4.80;;;13.90;99.90;;;;;;5052156;28;21073;-73
2023/06/18 01:58:01;;;;;;;5.93;5.20;;;13.90;99.90;;;;;;5052539;28;20506;-73
2023/06/18 02:00:28;;;;;;;5.60;5.00;;;13.90;99.90;;;;;;5032265;28;20453;-73
2023/06/18 02:02:56;;;;;;;5.83;4.77;;;13.90;99.90;;;;;;5032319;28;20484;-73
2023/06/18 02:05:23;;;;;;;5.80;5.20;;;13.90;99.90;;;;;;5031827;28;20465;-73
2023/06/18 02:07:50;;;;;;;6.27;5.67;;;13.80;99.90;;;;;;5031993;28;20468;-73
2023/06/18 02:10:16;;;;;;;5.13;4.63;;;13.80;99.90;;;;;;5031573;28;20460;-73
2023/06/18 02:12:43;;;;;;;6.20;5.20;;;13.80;99.90;;;;;;5031782;28;20503;-73
2023/06/18 02:15:10;;;;;;;6.07;4.73;;;13.80;99.90;;;;;;5031730;28;20469;-73
2023/06/18 02:17:37;;;;;;;6.03;5.30;;;13.80;99.90;;;;;;5031944;28;20560;-73
2023/06/18 02:20:06;;;;;;;6.17;5.10;;;13.70;99.90;;;;;;5031578;28;20855;-73
2023/06/18 02:22:33;;;;;;;5.10;4.63;;;13.70;99.90;;;;;;5031488;28;20465;-73
2023/06/18 02:25:00;;;;;;;5.73;5.23;;;13.70;99.90;;;;;;5031755;28;20491;-73
2023/06/18 02:27:27;;;;;;;8.10;5.60;;;13.70;99.90;;;;;;5031570;28;20464;-73
2023/06/18 02:29:53;;;;;;;6.03;5.37;;;13.60;99.90;;;;;;5031898;28;20484;-73
2023/06/18 02:32:20;;;;;;;5.67;5.07;;;13.60;99.90;;;;;;5031163;28;20472;-73
2023/06/18 02:34:47;;;;;;;5.70;5.10;;;13.50;99.90;;;;;;5031854;28;20460;-73
2023/06/18 02:37:15;;;;;;;5.00;4.50;;;13.60;99.90;;;;;;5031680;28;20487;-73
2023/06/18 02:39:41;;;;;;;5.43;4.93;;;13.50;99.90;;;;;;5031767;28;20472;-73
2023/06/18 02:42:09;;;;;;;5.87;5.33;;;13.50;99.90;;;;;;5031013;28;20952;-73
2023/06/18 02:44:36;;;;;;;6.23;5.63;;;13.50;99.90;;;;;;5031477;28;20460;-73
2023/06/18 02:47:03;;;;;;;5.77;5.27;;;13.40;99.90;;;;;;5031605;28;20940;-73
2023/06/18 02:49:30;;;;;;;7.70;4.60;;;13.40;99.90;;;;;;5031133;28;20492;-73
2023/06/18 02:51:57;;;;;;;6.77;5.20;;;13.40;99.90;;;;;;5031165;28;20539;-73
2023/06/18 02:54:25;;;;;;;5.97;5.30;;;13.40;99.90;;;;;;5030845;28;20967;-73
2023/06/18 02:56:52;;;;;;;7.17;5.60;;;13.40;99.90;;;;;;5031259;28;20460;-73
2023/06/18 02:59:18;;;;;;;6.00;5.00;;;13.40;99.90;;;;;;5030646;28;20476;-73
2023/06/18 03:01:45;;;;;;;6.00;4.77;;;13.30;99.90;;;;;;5030899;28;20460;-73
2023/06/18 03:04:12;;;;;;;8.13;6.33;;;13.30;99.90;;;;;;5047737;28;20456;-73
2023/06/18 03:06:39;;;;;;;7.47;5.63;;;13.30;99.90;;;;;;5051200;28;20459;-73
2023/06/18 03:09:06;;;;;;;6.63;4.67;;;13.30;99.90;;;;;;5050398;28;20577;-73
2023/06/18 03:11:34;;;;;;;5.33;4.83;;;13.20;99.90;;;;;;5050485;28;20486;-73
2023/06/18 03:14:01;;;;;;;6.10;5.40;;;13.20;99.90;;;;;;5050352;28;20459;-73
2023/06/18 03:16:28;;;;;;;5.20;4.70;;;13.20;99.90;;;;;;5050280;28;20835;-73
2023/06/18 03:18:56;;;;;;;6.80;6.17;;;13.10;99.90;;;;;;5050617;28;20472;-73
2023/06/18 03:21:23;;;;;;;6.23;5.63;;;13.10;99.90;;;;;;5050072;28;20463;-73
2023/06/18 03:23:50;;;;;;;5.43;4.93;;;13.10;99.90;;;;;;5050129;28;20490;-73
2023/06/18 03:26:16;;;;;;;6.93;5.20;;;13.10;99.90;;;;;;5048960;28;20470;-73
2023/06/18 03:28:45;;;;;;;6.43;5.57;;;13.10;99.90;;;;;;5030408;28;20491;-73
2023/06/18 03:31:11;;;;;;;7.93;5.50;;;13.10;99.90;;;;;;5030190;28;20798;-73
2023/06/18 03:33:38;;;;;;;5.80;4.47;;;13.10;99.90;;;;;;5030152;28;20463;-73
2023/06/18 03:36:05;;;;;;;5.63;5.03;;;13.10;99.90;;;;;;5030482;28;20468;-73
2023/06/18 03:38:32;;;;;;;6.03;5.27;;;13.10;99.90;;;;;;5030020;28;20499;-73
2023/06/18 03:40:59;;;;;;;5.93;5.33;;;13.00;99.90;;;;;;5030360;28;20463;-73
2023/06/18 03:43:25;;;;;;;6.40;4.80;;;13.00;99.90;;;;;;5029743;28;20466;-73
2023/06/18 03:45:54;;;;;;;6.00;5.40;;;13.00;99.90;;;;;;5030254;28;20460;-73
2023/06/18 03:48:20;;;;;;;5.53;4.90;;;13.00;99.90;;;;;;5031039;28;21018;-73
2023/06/18 03:50:47;;;;;;;6.07;5.33;;;13.00;99.90;;;;;;5049328;28;20464;-73
2023/06/18 03:53:14;;;;;;;5.93;5.10;;;13.00;99.90;;;;;;5049500;28;20482;-73
2023/06/18 03:55:42;;;;;;;5.83;5.23;;;13.00;99.90;;;;;;5050342;28;20458;-75
2023/06/18 03:58:08;;;;;;;8.20;5.30;;;13.10;99.90;;;;;;5050404;28;20511;-74
2023/06/18 04:00:35;;;;;;;5.20;4.70;;;13.10;99.90;;;;;;5050083;28;20539;-74
2023/06/18 04:03:05;;;;;;;7.37;5.33;;;13.20;99.90;;;;;;5050041;28;20524;-75
2023/06/18 04:05:32;;;;;;;5.97;5.20;;;13.20;99.90;;;;;;5050007;28;20469;-74
2023/06/18 04:07:58;;;;;;;6.97;5.27;;;13.20;99.90;;;;;;5050113;28;20494;-74
2023/06/18 04:10:26;;;;;;;5.40;4.77;;;13.30;99.90;;;;;;5049534;28;20479;-74
2023/06/18 04:12:52;;;;;;;6.83;5.33;;;13.30;99.90;;;;;;5049803;28;20547;-74
2023/06/18 04:15:19;;;;;;;8.00;5.10;;;13.30;99.90;;;;;;5049925;28;20470;-74
2023/06/18 04:17:46;;;;;;;6.23;5.23;;;13.40;99.90;;;;;;5050098;28;20466;-75
2023/06/18 04:20:14;;;;;;;6.20;5.60;;;13.40;99.90;;;;;;5049577;28;20478;-74
2023/06/18 04:22:41;;;;;;;6.03;4.80;;;13.50;99.90;;;;;;5049626;28;20475;-74
2023/06/18 04:25:08;;;;;;;7.37;6.07;;;13.60;99.90;;;;;;5049958;28;20463;-74
2023/06/18 04:27:35;;;;;;;6.10;5.27;;;13.70;99.90;;;;;;5049516;28;20947;-74
2023/06/18 04:30:02;;;;;;;5.53;5.00;;;13.70;99.90;;;;;;5049600;28;20589;-74
2023/06/18 04:32:29;;;;;;;6.10;5.50;;;13.80;99.90;;;;;;5049121;28;20509;-74
2023/06/18 04:34:55;;;;;;;6.23;5.63;;;13.80;99.90;;;;;;5049797;28;20460;-74
2023/06/18 04:37:24;;;;;;;9.30;5.47;;;13.90;99.90;;;;;;5049302;28;20463;-74
2023/06/18 04:39:50;;;;;;;7.23;5.60;;;14.00;99.90;;;;;;5049668;28;20483;-74
2023/06/18 04:42:17;;;;;;;4.97;4.47;;;14.00;99.90;;;;;;5049008;28;21041;-74
2023/06/18 04:44:44;;;;;;;5.50;5.00;;;14.10;99.90;;;;;;5049601;28;20467;-74
2023/06/18 04:47:11;;;;;;;5.93;4.80;;;14.20;99.90;;;;;;5049881;28;20483;-74
2023/06/18 04:49:37;;;;;;;6.03;5.43;;;14.20;99.90;;;;;;5029333;28;20484;-74
2023/06/18 04:52:05;;;;;;;6.10;5.30;;;14.30;99.90;;;;;;5029292;28;20460;-74
2023/06/18 04:54:33;;;;;;;5.33;4.57;;;14.40;99.90;;;;;;5029392;28;20461;-74
2023/06/18 04:57:00;;;;;;;6.03;5.50;;;14.50;99.90;;;;;;5029673;28;20472;-74
2023/06/18 04:59:27;;;;;;;7.23;5.80;;;14.50;99.90;;;;;;5029253;28;20480;-74
2023/06/18 05:01:56;;;;;;;6.63;5.30;;;14.60;99.90;;;;;;5030104;28;20551;-74
2023/06/18 05:04:22;;;;;;;6.33;5.13;;;14.60;99.90;;;;;;5032964;28;20460;-74
2023/06/18 05:06:49;;;;;;;6.80;5.20;;;14.60;99.90;;;;;;5033342;28;20472;-74
2023/06/18 05:09:16;;;;;;;8.20;6.17;;;14.70;99.90;;;;;;5032714;28;20995;-74
2023/06/18 05:11:44;;;;;;;6.20;5.57;;;14.80;99.90;;;;;;5033112;28;20487;-74
2023/06/18 05:14:11;;;;;;;6.50;5.80;;;14.80;99.90;;;;;;5032943;28;20525;-74
2023/06/18 05:16:37;;;;;;;5.70;5.20;;;14.80;99.90;;;;;;5052721;28;20467;-74
2023/06/18 05:19:04;;;;;;;7.43;6.60;;;14.80;99.90;;;;;;5052935;28;21028;-74
2023/06/18 05:21:31;;;;;;;6.50;5.33;;;14.90;99.90;;;;;;5052565;28;20459;-74
2023/06/18 05:23:58;;;;;;;5.97;4.93;;;14.90;99.90;;;;;;5052711;28;20466;-74
2023/06/18 05:26:25;;;;;;;6.13;5.00;;;15.00;99.90;;;;;;5048244;28;20464;-74
2023/06/18 05:28:53;;;;;;;5.80;5.00;;;15.00;99.90;;;;;;5052774;28;20486;-74
2023/06/18 05:31:20;;;;;;;6.70;6.00;;;15.10;99.90;;;;;;5052283;28;20455;-74
2023/06/18 05:33:47;;;;;;;6.00;5.40;;;15.10;99.90;;;;;;5048122;28;20472;-74
2023/06/18 05:36:13;;;;;;;6.47;5.70;;;15.20;99.90;;;;;;5049106;28;20463;-74
2023/06/18 05:38:40;;;;;;;6.60;6.00;;;15.30;99.90;;;;;;5053021;28;20480;-74
2023/06/18 05:41:07;;;;;;;5.83;5.30;;;15.40;99.90;;;;;;5052947;28;20455;-74
2023/06/18 05:43:33;;;;;;;9.83;5.50;;;15.40;99.90;;;;;;5052281;28;20467;-74
2023/06/18 05:46:01;;;;;;;6.10;5.50;;;15.50;99.90;;;;;;5052854;28;20459;-74
2023/06/18 05:48:28;;;;;;;7.50;5.93;;;15.70;99.90;;;;;;5052484;28;20483;-74
2023/06/18 05:50:55;;;;;;;5.83;5.23;;;15.80;99.90;;;;;;5052243;28;20479;-74
2023/06/18 05:53:22;;;;;;;7.53;5.87;;;15.90;99.90;;;;;;5052189;28;20487;-74
2023/06/18 05:55:48;;;;;;;6.97;6.27;;;16.10;99.90;;;;;;5052744;28;20590;-74
2023/06/18 05:58:15;;;;;;;9.20;5.63;;;16.20;99.90;;;;;;5052616;28;20479;-74
2023/06/18 06:00:42;;;;;;;7.50;5.50;;;16.30;99.90;;;;;;5032403;28;20471;-74
2023/06/18 06:03:10;;;;;;;8.10;6.17;;;16.50;99.90;;;;;;5031906;28;20847;-76
2023/06/18 06:05:37;;;;;;;7.43;6.10;;;16.60;99.90;;;;;;5031227;28;20476;-75
2023/06/18 06:08:06;;;;;;;7.43;5.63;;;16.70;99.90;;;;;;5046944;28;20495;-75
2023/06/18 06:10:34;;;;;;;6.43;5.47;;;16.90;99.90;;;;;;5051526;28;21235;-75
2023/06/18 06:13:02;;;;;;;8.10;5.20;;;17.10;99.90;;;;;;5051563;28;20471;-75
2023/06/18 06:15:29;;;;;;;6.47;5.87;;;17.20;99.90;;;;;;5051782;28;20459;-75
2023/06/18 06:17:55;;;;;;;6.43;5.67;;;17.40;99.90;;;;;;5052380;28;20466;-75
2023/06/18 06:20:24;;;;;;;6.85;6.10;;;17.50;99.90;;;;;;5051121;28;20450;-73
2023/06/18 06:22:51;;;;;;;6.30;5.70;;;17.70;99.90;;;;;;5043223;28;20198;-74
2023/06/18 06:25:17;;;;;;;6.47;5.77;;;17.90;99.90;;;;;;5051710;28;20843;-74
2023/06/18 06:27:44;;;;;;;6.07;5.30;;;18.10;99.90;;;;;;5031563;28;20464;-73
2023/06/18 06:30:11;;;;;;;5.77;5.17;;;18.20;99.90;;;;;;5046987;28;20479;-73
2023/06/18 06:32:38;;;;;;;6.00;5.20;;;18.30;99.90;;;;;;5051207;28;20460;-74
2023/06/18 06:35:06;;;;;;;6.30;5.60;;;18.50;99.90;;;;;;5051779;28;21053;-73
2023/06/18 06:37:34;;;;;;;6.33;5.63;;;18.60;99.90;;;;;;5051101;28;20464;-73
2023/06/18 06:40:01;;;;;;;5.53;5.03;;;18.80;99.90;;;;;;5051277;28;20863;-72
2023/06/18 06:42:28;;;;;;;5.77;5.27;;;19.00;99.90;;;;;;5050808;28;20883;-73
2023/06/18 06:44:55;;;;;;;6.50;5.17;;;19.10;99.90;;;;;;5051358;28;20463;-73
2023/06/18 06:47:22;;;;;;;6.40;5.13;;;19.20;99.90;;;;;;5045606;28;20463;-73
2023/06/18 06:49:48;;;;;;;5.20;4.80;;;19.40;99.90;;;;;;5035273;28;20811;-73
2023/06/18 06:52:15;;;;;;;5.50;4.97;;;19.60;99.90;;;;;;5038841;28;20464;-74
2023/06/18 06:54:43;;;;;;;5.30;4.80;;;19.80;99.90;;;;;;5050519;28;20464;-73
2023/06/18 06:57:10;;;;;;;7.57;4.70;;;19.90;99.10;;;;;;5050791;28;20979;-74
2023/06/18 06:59:37;;;;;;;6.90;4.60;;;20.10;97.40;;;;;;5039758;28;20481;-73
2023/06/18 07:02:04;;;;;;;6.30;4.50;;;20.20;97.60;;;;;;5030514;28;20473;-72
2023/06/18 07:04:31;;;;;;;11.67;5.17;;;20.40;97.00;;;;;;5030420;28;20536;-73
2023/06/18 07:06:58;;;;;;;5.10;4.60;;;20.50;95.50;;;;;;5038254;28;20464;-75
2023/06/18 07:09:24;;;;;;;5.17;4.67;;;20.60;95.20;;;;;;5042747;28;20508;-74
2023/06/18 07:11:53;;;;;;;5.20;4.50;;;20.70;94.40;;;;;;5050209;28;20467;-73
2023/06/18 07:14:19;;;;;;;4.83;4.30;;;20.70;94.60;;;;;;5050395;28;20460;-74
2023/06/18 07:16:46;;;;;;;5.17;4.60;;;20.90;94.30;;;;;;5030652;28;20468;-74
2023/06/18 07:19:13;;;;;;;6.07;5.20;;;21.00;94.60;;;;;;5045775;28;20484;-74
2023/06/18 07:21:39;;;;;;;4.90;4.50;;;21.10;92.80;;;;;;5049631;28;20480;-74
2023/06/18 07:24:06;;;;;;;4.80;4.40;;;21.20;94.30;;;;;;5049899;28;20457;-75
2023/06/18 07:26:33;;;;;;;5.83;4.70;;;21.30;93.20;;;;;;5049380;28;20461;-74
2023/06/18 07:29:01;;;;;;;5.10;4.60;;;21.40;93.10;;;;;;5037127;28;20482;-74
2023/06/18 07:31:28;;;;;;;5.63;5.07;;;21.40;92.70;;;;;;5030204;28;20488;-73
2023/06/18 07:33:55;;;;;;;5.13;4.63;;;21.50;92.90;;;;;;5043284;28;20465;-74
2023/06/18 07:36:22;;;;;;;6.30;5.00;;;21.60;93.10;;;;;;5049812;28;20457;-74
2023/06/18 07:38:49;;;;;;;5.10;4.37;;;21.70;94.20;;;;;;5049826;28;20488;-74
2023/06/18 07:41:16;;;;;;;5.60;5.00;;;21.90;95.70;;;;;;5049332;28;20512;-74
2023/06/18 07:43:43;;;;;;;6.03;4.53;;;22.00;96.40;;;;;;5049059;28;20469;-74
2023/06/18 07:46:11;;;;;;;5.57;4.97;;;22.10;97.30;;;;;;5049335;28;20834;-74
2023/06/18 07:48:38;;;;;;;6.57;5.10;;;22.20;97.20;;;;;;5048678;28;20490;-74
2023/06/18 07:51:05;;;;;;;4.97;4.47;;;22.30;97.10;;;;;;5049233;28;20489;-74
2023/06/18 07:53:32;;;;;;;5.03;4.53;;;22.40;97.30;;;;;;5049375;28;20468;-74
2023/06/18 07:56:00;;;;;;;5.03;4.53;;;22.40;95.60;;;;;;5050211;28;20500;-74
2023/06/18 07:58:26;;;;;;;5.20;4.70;;;22.50;95.40;;;;;;5049148;28;20480;-74
2023/06/18 08:00:53;;;;;;;4.60;4.20;;;22.60;95.60;;;;;;5049272;28;20979;-74
2023/06/18 08:03:21;;;;;;;4.73;4.33;;;22.70;96.00;;;;;;5049402;28;20465;-74
2023/06/18 08:05:48;;;;;;;5.47;4.60;;;22.70;94.10;;;;;;5049187;28;20464;-74
2023/06/18 08:08:15;;;;;;;5.00;4.60;;;22.80;95.50;;;;;;5049313;28;20511;-74
2023/06/18 08:10:41;;;;;;;5.97;4.80;;;23.00;95.30;;;;;;5048588;28;20515;-74
2023/06/18 08:13:08;;;;;;;5.57;5.00;;;23.10;94.80;;;;;;5049035;28;20463;-74
2023/06/18 08:15:35;;;;;;;4.93;4.37;;;23.20;94.70;;;;;;5048995;28;20487;-74
2023/06/18 08:18:02;;;;;;;5.93;4.40;;;23.20;93.30;;;;;;5048988;28;20491;-74
2023/06/18 08:20:30;;;;;;;6.40;5.07;;;23.30;93.50;;;;;;5048292;28;20954;-74
2023/06/18 08:22:56;;;;;;;5.07;4.67;;;23.50;93.40;;;;;;5049319;28;20459;-74
2023/06/18 08:25:23;;;;;;;4.40;4.00;;;23.60;92.80;;;;;;5045562;28;20475;-74
2023/06/18 08:27:50;;;;;;;5.60;4.40;;;23.70;92.70;;;;;;5029406;28;20476;-73
2023/06/18 08:30:17;;;;;;;5.77;4.73;;;23.80;92.30;;;;;;5040737;28;20869;-73
2023/06/18 08:32:43;;;;;;;6.00;5.07;;;24.00;93.20;;;;;;5048312;28;20469;-73
2023/06/18 08:35:10;;;;;;;4.30;3.90;;;24.10;92.90;;;;;;5049311;28;20488;-73
2023/06/18 08:37:38;;;;;;;4.80;4.20;;;24.20;93.20;;;;;;5051730;28;20486;-74
2023/06/18 08:40:07;;;;;;;4.80;4.30;;;24.30;92.90;;;;;;5052844;28;20515;-73
2023/06/18 08:42:34;;;;;;;4.70;4.20;;;24.40;93.20;;;;;;5052171;28;20467;-73
2023/06/18 08:45:00;;;;;;;5.53;4.60;;;24.50;91.80;;;;;;5053092;28;20461;-73
2023/06/18 08:47:29;;;;;;;5.30;4.80;;;24.70;91.10;;;;;;5052579;28;20837;-74
2023/06/18 08:49:59;;;;;;;4.90;4.40;;;24.80;91.90;;;;;;5053230;28;21109;-74
2023/06/18 08:52:29;;;;;;;5.43;4.93;;;24.90;92.00;;;;;;5053281;28;20472;-74
2023/06/18 08:55:01;;;;;;;4.50;4.10;;;25.00;90.80;;;;;;5053259;28;20515;-74
2023/06/18 08:57:33;;;;;;;6.40;4.53;;;25.00;90.30;;;;;;5053401;28;20544;-73
2023/06/18 09:00:01;;;;;;;5.10;4.60;;;25.10;91.70;;;;;;5049002;28;20484;-73
2023/06/18 09:02:28;;;;;;;5.40;4.90;;;25.10;92.10;;;;;;5049751;28;20470;-73
2023/06/18 09:04:55;;;;;;;5.17;4.47;;;25.10;91.20;;;;;;5092492;22;20508;-69
2023/06/18 09:07:24;;;;;;;4.70;4.30;;;25.20;91.80;;;;;;5033061;28;20520;-69
2023/06/18 09:09:51;;;;;;;5.57;5.07;;;25.30;92.70;;;;;;5051250;28;20510;-68
2023/06/18 09:12:19;;;;;;;5.13;4.63;;;25.50;91.70;;;;;;5045428;28;20486;-69
2023/06/18 09:14:46;;;;;;;5.40;4.60;;;25.60;91.10;;;;;;5032411;28;20456;-69
2023/06/18 09:17:13;;;;;;;4.97;4.57;;;25.60;90.70;;;;;;5032923;28;20536;-70
2023/06/18 09:19:40;;;;;;;4.60;4.20;;;25.70;91.40;;;;;;5050751;28;20478;-68
2023/06/18 09:22:15;;;;;;;5.10;4.60;;;25.80;91.20;;;;;;5052705;28;20980;-69
2023/06/18 09:24:42;;;;;;;4.60;4.20;;;25.90;91.60;;;;;;5052471;28;20466;-69
2023/06/18 09:27:09;;;;;;;4.93;4.53;;;25.90;90.90;;;;;;5052687;28;20470;-70
2023/06/18 09:29:38;;;;;;;4.50;4.10;;;26.00;88.70;;;;;;5051914;28;20509;-69
2023/06/18 09:32:07;;;;;;;4.63;4.23;;;26.10;87.30;;;;;;5051680;28;20483;-69
2023/06/18 09:34:34;;;;;;;5.47;4.93;;;26.20;90.10;;;;;;5052235;28;20474;-69
2023/06/18 09:37:01;;;;;;;4.10;3.70;;;26.30;85.30;;;;;;5052755;28;20469;-70
2023/06/18 09:39:28;;;;;;;5.23;4.20;;;26.30;85.60;;;;;;5052380;28;20548;-69
2023/06/18 09:41:56;;;;;;;5.03;4.53;;;26.40;89.10;;;;;;5052332;28;20964;-70
2023/06/18 09:44:23;;;;;;;4.57;4.17;;;26.50;90.20;;;;;;5052168;28;20514;-70
2023/06/18 09:46:57;;;;;;;4.60;3.90;;;26.60;85.40;;;;;;5052136;28;20466;-69
2023/06/18 09:49:25;;;;;;;5.23;4.50;;;26.70;85.80;;;;;;5036091;28;20485;-70
2023/06/18 09:51:53;;;;;;;4.60;4.03;;;26.80;87.50;;;;;;5031897;28;20487;-69
2023/06/18 09:54:20;;;;;;;9.23;4.50;;;26.80;81.40;;;;;;5032095;28;20462;-70
2023/06/18 09:56:58;;;;;;;4.83;4.40;;;26.80;88.40;;;;;;5032131;28;20475;-70
2023/06/18 09:59:25;;;;;;;4.50;4.10;;;27.00;84.90;;;;;;5031861;28;20546;-70
2023/06/18 10:01:54;;;;;;;4.00;3.70;;;27.10;86.50;;;;;;5032017;28;20463;-70
2023/06/18 10:04:21;;;;;;;4.50;4.10;;;27.20;87.80;;;;;;5030142;28;20480;-69
2023/06/18 10:06:51;;;;;;;4.63;4.23;;;27.30;85.90;;;;;;5032019;28;20460;-69
2023/06/18 10:09:21;;;;;;;4.40;4.00;;;27.20;85.20;;;;;;5046391;28;20577;-69
2023/06/18 10:11:50;;;;;;;5.00;4.50;;;27.10;87.70;;;;;;5036298;28;20495;-70
2023/06/18 10:14:22;;;;;;;4.60;4.20;;;27.00;88.50;;;;;;5031024;28;20554;-70
2023/06/18 10:16:51;;;;;;;4.47;4.07;;;26.90;85.00;;;;;;5034182;28;20483;-70
2023/06/18 10:19:24;;;;;;;4.43;4.03;;;27.00;86.10;;;;;;5036904;28;20484;-69
2023/06/18 10:21:57;;;;;;;5.07;4.57;;;27.10;89.80;;;;;;5031474;28;20525;-67
2023/06/18 10:24:31;;;;;;;4.57;4.17;;;27.20;87.70;;;;;;5031394;28;20559;-67
2023/06/18 10:26:58;;;;;;;6.00;4.10;;;27.30;90.40;;;;;;5031763;28;20822;-69
2023/06/18 10:29:25;;;;;;;5.87;4.13;;;27.50;87.80;;;;;;5031177;28;20487;-69
2023/06/18 10:31:53;;;;;;;5.63;4.90;;;27.50;87.60;;;;;;5041522;28;20485;-70
2023/06/18 10:34:22;;;;;;;6.10;5.30;;;27.60;88.80;;;;;;5050792;28;20464;-70
2023/06/18 10:36:49;;;;;;;5.10;4.60;;;27.70;85.00;;;;;;5040686;28;20464;-69
2023/06/18 10:39:16;;;;;;;5.20;4.70;;;27.80;86.60;;;;;;5031195;28;20491;-70
2023/06/18 10:41:45;;;;;;;4.70;4.17;;;28.00;83.80;;;;;;5030896;28;20456;-70
2023/06/18 10:44:12;;;;;;;4.80;4.30;;;28.10;88.00;;;;;;5030827;28;20952;-70
2023/06/18 10:46:39;;;;;;;5.13;4.63;;;28.10;85.40;;;;;;5030568;28;20472;-70
2023/06/18 10:49:16;;;;;;;5.30;4.30;;;28.10;81.40;;;;;;5030414;28;20499;-68
2023/06/18 10:51:51;;;;;;;5.23;4.73;;;28.10;83.60;;;;;;5030516;28;20480;-69
2023/06/18 10:54:29;;;;;;;5.00;4.53;;;28.10;88.70;;;;;;5030730;28;20472;-70
2023/06/18 10:56:57;;;;;;;4.40;4.00;;;28.10;85.90;;;;;;5029986;28;20467;-69
2023/06/18 10:59:37;;;;;;;5.00;4.50;;;28.20;86.70;;;;;;5029694;28;20887;-70
2023/06/18 11:02:05;;;;;;;4.63;4.10;;;28.20;80.90;;;;;;5022827;28;20456;-70
2023/06/18 11:04:33;;;;;;;6.43;5.50;;;28.30;80.20;;;;;;5030731;28;20551;-70
2023/06/18 11:07:19;;;;;;;6.50;5.87;;;28.40;83.70;;;;;;5022753;28;20474;-70
2023/06/18 11:09:48;;;;;;;16.33;13.83;;;28.50;84.30;;;;;;5030394;28;21004;-70
2023/06/18 11:12:23;;;;;;;7.67;6.93;;;28.50;83.80;;;;;;5029933;28;20550;-69
2023/06/18 11:15:06;;;;;;;6.90;5.27;;;28.60;85.10;;;;;;5030615;28;20543;-70
2023/06/18 11:17:33;;;;;;;5.23;4.73;;;28.60;83.60;;;;;;5030816;28;20464;-70
2023/06/18 11:20:01;;;;;;;4.73;4.33;;;28.70;86.00;;;;;;5050294;28;20491;-71
2023/06/18 11:22:30;;;;;;;6.30;5.80;;;28.70;80.00;;;;;;5050232;28;20459;-70
2023/06/18 11:24:59;;;;;;;19.63;18.23;;;28.70;82.40;;;;;;5024001;28;20464;-70
2023/06/18 11:27:26;;;;;;;40.50;35.43;;;28.80;85.20;;;;;;5027234;28;20485;-70
2023/06/18 11:29:56;;;;;;;13.63;12.33;;;29.00;82.20;;;;;;5029298;28;20484;-70
2023/06/18 11:32:23;;;;;;;20.50;18.50;;;29.10;77.90;;;;;;5029512;28;20519;-69
2023/06/18 11:34:51;;;;;;;8.00;7.07;;;29.20;79.90;;;;;;5030277;28;20548;-69
2023/06/18 11:37:18;;;;;;;9.83;8.97;;;29.20;81.10;;;;;;5030414;28;20492;-70
2023/06/18 11:39:47;;;;;;;5.10;4.60;;;29.30;80.60;;;;;;5030143;28;20480;-69
2023/06/18 11:42:15;;;;;;;4.43;4.03;;;29.30;84.80;;;;;;5029735;28;21235;-69
2023/06/18 11:44:52;;;;;;;4.73;4.33;;;29.30;83.40;;;;;;5030150;28;20491;-69
2023/06/18 11:47:19;;;;;;;4.73;4.33;;;29.40;77.70;;;;;;5030309;28;20529;-70
2023/06/18 11:49:47;;;;;;;4.33;3.97;;;29.50;79.70;;;;;;5030527;28;20487;-69
2023/06/18 11:52:16;;;;;;;5.03;4.63;;;29.60;81.00;;;;;;5029133;28;20487;-71
2023/06/18 11:54:44;;;;;;;5.97;5.30;;;29.60;79.90;;;;;;5031026;28;20457;-69
2023/06/18 11:57:13;;;;;;;410.37;320.53;;;29.60;84.40;;;;;;5030051;28;20468;-68
2023/06/18 11:59:40;;;;;;;77.30;58.30;;;29.70;82.20;;;;;;5029469;28;20484;-69
2023/06/18 12:02:11;;;;;;;10.87;9.87;;;29.80;85.80;;;;;;5029233;28;20480;-70
2023/06/18 12:04:38;;;;;;;7.33;6.20;;;29.70;80.90;;;;;;5029828;28;20853;-70
2023/06/18 12:07:05;;;;;;;126.03;82.97;;;29.70;84.30;;;;;;5029749;28;20472;-70
2023/06/18 12:09:32;;;;;;;29.93;23.10;;;29.80;81.60;;;;;;5029417;28;20480;-71
2023/06/18 12:12:09;;;;;;;32.13;22.87;;;29.90;80.10;;;;;;5031428;28;20475;-71
2023/06/18 12:14:41;;;;;;;29.37;23.70;;;30.00;81.00;;;;;;5032757;28;20551;-71
2023/06/18 12:17:12;;;;;;;19.17;14.90;;;30.10;80.90;;;;;;5046193;28;20471;-70
2023/06/18 12:19:44;;;;;;;18.77;13.53;;;30.20;82.10;;;;;;5045315;28;20492;-70
2023/06/18 12:22:12;;;;;;;7.80;7.00;;;30.20;83.70;;;;;;5033217;28;20503;-70
2023/06/18 12:24:39;;;;;;;10.20;9.10;;;30.30;79.60;;;;;;5033292;28;20464;-70
2023/06/18 12:27:06;;;;;;;7.63;6.93;;;30.30;80.80;;;;;;5033363;28;20464;-70
2023/06/18 12:29:33;;;;;;;7.20;6.57;;;30.50;78.60;;;;;;5032055;28;20580;-70
2023/06/18 12:32:08;;;;;;;24.50;22.00;;;30.50;81.50;;;;;;5032582;28;20480;-70
2023/06/18 12:34:35;;;;;;;15.50;13.90;;;30.50;81.00;;;;;;5033616;28;20463;-70
2023/06/18 12:37:02;;;;;;;6.27;5.73;;;30.60;80.90;;;;;;5033345;28;20550;-70
2023/06/18 12:39:29;;;;;;;6.13;5.60;;;30.60;80.50;;;;;;5033743;28;20483;-71
2023/06/18 12:41:56;;;;;;;5.20;4.70;;;30.70;74.80;;;;;;5027959;28;20468;-70
2023/06/18 12:44:24;;;;;;;5.07;4.50;;;30.70;78.80;;;;;;5031437;28;20469;-70
2023/06/18 12:46:52;;;;;;;4.47;4.07;;;30.60;79.00;;;;;;5031994;28;20906;-69
2023/06/18 12:49:21;;;;;;;4.50;3.83;;;30.60;78.70;;;;;;5025345;28;20492;-70